This is the latest recevied weather packets stored in our database for station/object SP3SWJ-13. If no packets are shown the sender has not sent any weather packets the latest 10 day(s).
| Time | Temp. | Humidity | Pressure | Rain* | Wind** | Luminosity | Snow |
|---|---|---|---|---|---|---|---|
| 1777984832 | 22.22° C | 54% | 998.8 hPa | - | - | 457 W/m² | - |
| 1777984531 | 22.22° C | 53% | 998.9 hPa | - | - | 580 W/m² | - |
| 1777984230 | 22.78° C | 54% | 998.9 hPa | - | - | 362 W/m² | - |
| 1777983930 | 22.22° C | 53% | 998.9 hPa | - | - | 362 W/m² | - |
| 1777983629 | 22.78° C | 53% | 999 hPa | - | - | 325 W/m² | - |
| 1777983328 | 22.78° C | 54% | 999 hPa | - | - | 222 W/m² | - |
| 1777983027 | 22.78° C | 54% | 999 hPa | - | - | 391 W/m² | - |
| 1777982726 | 22.22° C | 53% | 999 hPa | - | - | 602 W/m² | - |
| 1777982425 | 22.22° C | 54% | 998.9 hPa | - | - | 360 W/m² | - |
| 1777982124 | 22.78° C | 52% | 998.9 hPa | - | - | 418 W/m² | - |
| 1777981823 | 22.78° C | 52% | 998.9 hPa | - | - | 498 W/m² | - |
| 1777981523 | 22.78° C | 51% | 998.9 hPa | - | - | 413 W/m² | - |
| 1777981222 | 22.22° C | 52% | 999 hPa | - | - | 691 W/m² | - |
| 1777980920 | 22.78° C | 53% | 999 hPa | - | - | 499 W/m² | - |
| 1777980619 | 22.22° C | 52% | 999.1 hPa | - | - | 669 W/m² | - |
| 1777980318 | 21.67° C | 52% | 999.2 hPa | - | - | 581 W/m² | - |
| 1777980017 | 22.22° C | 52% | 999.2 hPa | - | - | 412 W/m² | - |
| 1777979717 | 22.22° C | 53% | 999.3 hPa | - | - | 493 W/m² | - |
| 1777979415 | 21.67° C | 55% | 999.3 hPa | - | - | 439 W/m² | - |
| 1777979115 | 21.11° C | 55% | 999.4 hPa | - | - | 516 W/m² | - |
| 1777978814 | 21.11° C | 56% | 999.5 hPa | - | - | 389 W/m² | - |
| 1777978513 | 21.11° C | 56% | 999.6 hPa | - | - | 319 W/m² | - |
| 1777978212 | 20.56° C | 57% | 999.6 hPa | - | - | 400 W/m² | - |
| 1777977911 | 20.56° C | 58% | 999.7 hPa | - | - | 215 W/m² | - |
| 1777977610 | 20.56° C | 58% | 999.7 hPa | - | - | 246 W/m² | - |
* Rain since midnight (hover to see other rain measurements)
** Current wind speed in m/s (hover to see current wind gust speed)